sensor_id;sensor_type;location;lat;lon;timestamp;P1;durP1;ratioP1;P2;durP2;ratioP2
48574;SDS011;34352;51.084;3.712;2023-09-07T00:02:07;8.18;;;6.20;;
48574;SDS011;34352;51.084;3.712;2023-09-07T00:04:33;10.68;;;6.30;;
48574;SDS011;34352;51.084;3.712;2023-09-07T00:07:07;10.82;;;6.22;;
48574;SDS011;34352;51.084;3.712;2023-09-07T00:09:33;10.32;;;6.07;;
48574;SDS011;34352;51.084;3.712;2023-09-07T00:12:05;8.10;;;5.40;;
48574;SDS011;34352;51.084;3.712;2023-09-07T00:14:42;8.35;;;5.35;;
48574;SDS011;34352;51.084;3.712;2023-09-07T00:17:10;11.80;;;6.57;;
48574;SDS011;34352;51.084;3.712;2023-09-07T00:19:35;10.18;;;5.40;;
48574;SDS011;34352;51.084;3.712;2023-09-07T00:22:04;12.15;;;6.70;;
48574;SDS011;34352;51.084;3.712;2023-09-07T00:24:30;12.52;;;6.50;;
48574;SDS011;34352;51.084;3.712;2023-09-07T00:26:57;8.63;;;5.75;;
48574;SDS011;34352;51.084;3.712;2023-09-07T00:29:25;9.07;;;6.10;;
48574;SDS011;34352;51.084;3.712;2023-09-07T00:31:51;13.27;;;6.53;;
48574;SDS011;34352;51.084;3.712;2023-09-07T00:34:16;11.88;;;6.57;;
48574;SDS011;34352;51.084;3.712;2023-09-07T00:42:02;10.05;;;6.28;;
48574;SDS011;34352;51.084;3.712;2023-09-07T00:44:30;11.15;;;6.30;;
48574;SDS011;34352;51.084;3.712;2023-09-07T00:47:02;9.27;;;6.43;;
48574;SDS011;34352;51.084;3.712;2023-09-07T00:49:28;10.65;;;5.93;;
48574;SDS011;34352;51.084;3.712;2023-09-07T00:51:54;13.82;;;7.70;;
48574;SDS011;34352;51.084;3.712;2023-09-07T00:54:20;11.02;;;6.78;;
48574;SDS011;34352;51.084;3.712;2023-09-07T00:56:54;11.80;;;6.57;;
48574;SDS011;34352;51.084;3.712;2023-09-07T01:04:23;13.63;;;7.15;;
48574;SDS011;34352;51.084;3.712;2023-09-07T01:09:49;10.82;;;6.57;;
48574;SDS011;34352;51.084;3.712;2023-09-07T01:12:19;15.18;;;7.43;;
48574;SDS011;34352;51.084;3.712;2023-09-07T01:14:46;10.73;;;6.55;;
48574;SDS011;34352;51.084;3.712;2023-09-07T01:17:14;11.48;;;6.82;;
48574;SDS011;34352;51.084;3.712;2023-09-07T01:19:41;10.70;;;6.43;;
48574;SDS011;34352;51.084;3.712;2023-09-07T01:22:08;11.80;;;6.68;;
48574;SDS011;34352;51.084;3.712;2023-09-07T01:24:37;16.08;;;7.82;;
48574;SDS011;34352;51.084;3.712;2023-09-07T01:27:05;10.65;;;6.60;;
48574;SDS011;34352;51.084;3.712;2023-09-07T01:32:03;10.60;;;6.75;;
48574;SDS011;34352;51.084;3.712;2023-09-07T01:34:33;10.43;;;6.53;;
48574;SDS011;34352;51.084;3.712;2023-09-07T01:37:00;9.90;;;6.35;;
48574;SDS011;34352;51.084;3.712;2023-09-07T01:42:02;15.27;;;7.25;;
48574;SDS011;34352;51.084;3.712;2023-09-07T01:46:55;11.55;;;6.82;;
48574;SDS011;34352;51.084;3.712;2023-09-07T01:49:22;9.20;;;6.18;;
48574;SDS011;34352;51.084;3.712;2023-09-07T01:51:51;10.73;;;6.60;;
48574;SDS011;34352;51.084;3.712;2023-09-07T01:54:21;13.55;;;7.40;;
48574;SDS011;34352;51.084;3.712;2023-09-07T01:56:47;12.38;;;7.68;;
48574;SDS011;34352;51.084;3.712;2023-09-07T01:59:13;11.80;;;7.25;;
48574;SDS011;34352;51.084;3.712;2023-09-07T02:01:40;12.13;;;7.25;;
48574;SDS011;34352;51.084;3.712;2023-09-07T02:04:14;13.05;;;6.22;;
48574;SDS011;34352;51.084;3.712;2023-09-07T02:06:43;11.13;;;6.70;;
48574;SDS011;34352;51.084;3.712;2023-09-07T02:09:09;11.50;;;6.63;;
48574;SDS011;34352;51.084;3.712;2023-09-07T02:11:41;11.80;;;7.10;;
48574;SDS011;34352;51.084;3.712;2023-09-07T02:16:59;14.05;;;7.53;;
48574;SDS011;34352;51.084;3.712;2023-09-07T02:19:29;13.30;;;7.10;;
48574;SDS011;34352;51.084;3.712;2023-09-07T02:21:55;8.75;;;6.50;;
48574;SDS011;34352;51.084;3.712;2023-09-07T02:24:20;12.30;;;7.30;;
48574;SDS011;34352;51.084;3.712;2023-09-07T02:26:56;10.93;;;6.78;;
48574;SDS011;34352;51.084;3.712;2023-09-07T02:29:32;14.02;;;6.68;;
48574;SDS011;34352;51.084;3.712;2023-09-07T02:31:59;9.88;;;5.63;;
48574;SDS011;34352;51.084;3.712;2023-09-07T02:34:27;10.70;;;6.72;;
48574;SDS011;34352;51.084;3.712;2023-09-07T02:37:02;10.57;;;6.90;;
48574;SDS011;34352;51.084;3.712;2023-09-07T02:39:30;10.10;;;6.63;;
48574;SDS011;34352;51.084;3.712;2023-09-07T02:42:02;12.43;;;7.35;;
48574;SDS011;34352;51.084;3.712;2023-09-07T02:44:35;10.88;;;6.43;;
48574;SDS011;34352;51.084;3.712;2023-09-07T02:49:38;10.85;;;6.90;;
48574;SDS011;34352;51.084;3.712;2023-09-07T02:52:06;11.40;;;6.43;;
48574;SDS011;34352;51.084;3.712;2023-09-07T02:54:37;11.32;;;6.50;;
48574;SDS011;34352;51.084;3.712;2023-09-07T02:57:05;11.30;;;6.82;;
48574;SDS011;34352;51.084;3.712;2023-09-07T02:59:32;12.63;;;6.43;;
48574;SDS011;34352;51.084;3.712;2023-09-07T03:01:57;12.63;;;7.00;;
48574;SDS011;34352;51.084;3.712;2023-09-07T03:04:23;11.15;;;6.57;;
48574;SDS011;34352;51.084;3.712;2023-09-07T03:06:54;10.07;;;6.60;;
48574;SDS011;34352;51.084;3.712;2023-09-07T03:09:24;9.60;;;5.75;;
48574;SDS011;34352;51.084;3.712;2023-09-07T03:11:49;10.93;;;6.72;;
48574;SDS011;34352;51.084;3.712;2023-09-07T03:14:15;9.55;;;6.57;;
48574;SDS011;34352;51.084;3.712;2023-09-07T03:16:41;12.07;;;6.68;;
48574;SDS011;34352;51.084;3.712;2023-09-07T03:24:22;11.13;;;6.78;;
48574;SDS011;34352;51.084;3.712;2023-09-07T03:26:49;11.63;;;6.90;;
48574;SDS011;34352;51.084;3.712;2023-09-07T03:29:15;11.23;;;6.57;;
48574;SDS011;34352;51.084;3.712;2023-09-07T03:31:47;10.90;;;6.75;;
48574;SDS011;34352;51.084;3.712;2023-09-07T03:34:15;11.27;;;6.40;;
48574;SDS011;34352;51.084;3.712;2023-09-07T03:36:44;13.38;;;6.57;;
48574;SDS011;34352;51.084;3.712;2023-09-07T03:39:16;8.93;;;5.82;;
48574;SDS011;34352;51.084;3.712;2023-09-07T03:41:45;11.65;;;6.75;;
48574;SDS011;34352;51.084;3.712;2023-09-07T03:44:16;10.48;;;6.38;;
48574;SDS011;34352;51.084;3.712;2023-09-07T03:46:42;10.00;;;6.15;;
48574;SDS011;34352;51.084;3.712;2023-09-07T03:49:07;12.30;;;7.10;;
48574;SDS011;34352;51.084;3.712;2023-09-07T03:51:38;10.15;;;6.53;;
48574;SDS011;34352;51.084;3.712;2023-09-07T03:54:06;13.95;;;7.70;;
48574;SDS011;34352;51.084;3.712;2023-09-07T03:56:32;9.80;;;6.95;;
48574;SDS011;34352;51.084;3.712;2023-09-07T03:59:00;12.38;;;7.07;;
48574;SDS011;34352;51.084;3.712;2023-09-07T04:01:28;10.88;;;6.70;;
48574;SDS011;34352;51.084;3.712;2023-09-07T04:03:54;9.95;;;6.22;;
48574;SDS011;34352;51.084;3.712;2023-09-07T04:06:20;9.45;;;6.65;;
48574;SDS011;34352;51.084;3.712;2023-09-07T04:08:46;12.40;;;7.18;;
48574;SDS011;34352;51.084;3.712;2023-09-07T04:11:14;12.63;;;7.40;;
48574;SDS011;34352;51.084;3.712;2023-09-07T04:13:42;12.13;;;6.65;;
48574;SDS011;34352;51.084;3.712;2023-09-07T04:16:15;12.45;;;7.50;;
48574;SDS011;34352;51.084;3.712;2023-09-07T04:18:41;11.13;;;6.30;;
48574;SDS011;34352;51.084;3.712;2023-09-07T04:21:09;14.18;;;7.32;;
48574;SDS011;34352;51.084;3.712;2023-09-07T04:23:37;11.02;;;6.78;;
48574;SDS011;34352;51.084;3.712;2023-09-07T04:26:12;11.07;;;6.80;;
48574;SDS011;34352;51.084;3.712;2023-09-07T04:28:40;12.77;;;7.07;;
48574;SDS011;34352;51.084;3.712;2023-09-07T04:31:09;10.23;;;6.38;;
48574;SDS011;34352;51.084;3.712;2023-09-07T04:33:37;11.05;;;6.82;;
48574;SDS011;34352;51.084;3.712;2023-09-07T04:36:10;13.15;;;6.97;;
48574;SDS011;34352;51.084;3.712;2023-09-07T04:38:38;12.60;;;6.75;;
48574;SDS011;34352;51.084;3.712;2023-09-07T04:41:14;10.55;;;6.45;;
48574;SDS011;34352;51.084;3.712;2023-09-07T04:43:42;15.23;;;7.57;;
48574;SDS011;34352;51.084;3.712;2023-09-07T04:46:13;12.93;;;6.43;;
48574;SDS011;34352;51.084;3.712;2023-09-07T04:51:16;13.52;;;7.35;;
48574;SDS011;34352;51.084;3.712;2023-09-07T04:53:44;17.00;;;9.02;;
48574;SDS011;34352;51.084;3.712;2023-09-07T04:56:12;16.17;;;9.70;;
48574;SDS011;34352;51.084;3.712;2023-09-07T04:58:38;16.27;;;9.18;;
48574;SDS011;34352;51.084;3.712;2023-09-07T05:01:20;16.10;;;9.35;;
48574;SDS011;34352;51.084;3.712;2023-09-07T05:06:16;13.57;;;8.82;;
48574;SDS011;34352;51.084;3.712;2023-09-07T05:08:42;12.75;;;8.85;;
48574;SDS011;34352;51.084;3.712;2023-09-07T05:11:07;15.75;;;9.00;;
48574;SDS011;34352;51.084;3.712;2023-09-07T05:13:33;16.75;;;9.13;;
48574;SDS011;34352;51.084;3.712;2023-09-07T05:15:59;20.50;;;9.70;;
48574;SDS011;34352;51.084;3.712;2023-09-07T05:18:31;16.20;;;9.55;;
48574;SDS011;34352;51.084;3.712;2023-09-07T05:20:58;18.27;;;9.05;;
48574;SDS011;34352;51.084;3.712;2023-09-07T05:23:24;18.70;;;9.82;;
48574;SDS011;34352;51.084;3.712;2023-09-07T05:25:53;15.20;;;9.10;;
48574;SDS011;34352;51.084;3.712;2023-09-07T05:28:19;15.10;;;9.27;;
48574;SDS011;34352;51.084;3.712;2023-09-07T05:30:46;18.00;;;9.60;;
48574;SDS011;34352;51.084;3.712;2023-09-07T05:33:17;16.90;;;9.43;;
48574;SDS011;34352;51.084;3.712;2023-09-07T05:38:13;14.95;;;9.93;;
48574;SDS011;34352;51.084;3.712;2023-09-07T05:40:42;12.10;;;8.27;;
48574;SDS011;34352;51.084;3.712;2023-09-07T05:43:10;15.95;;;9.55;;
48574;SDS011;34352;51.084;3.712;2023-09-07T05:45:38;19.92;;;9.55;;
48574;SDS011;34352;51.084;3.712;2023-09-07T05:48:05;20.05;;;9.65;;
48574;SDS011;34352;51.084;3.712;2023-09-07T05:50:33;14.70;;;9.27;;
48574;SDS011;34352;51.084;3.712;2023-09-07T05:53:00;17.98;;;9.80;;
48574;SDS011;34352;51.084;3.712;2023-09-07T05:55:26;20.23;;;9.95;;
48574;SDS011;34352;51.084;3.712;2023-09-07T05:57:53;19.60;;;10.07;;
48574;SDS011;34352;51.084;3.712;2023-09-07T06:00:20;15.98;;;9.40;;
48574;SDS011;34352;51.084;3.712;2023-09-07T06:02:45;17.77;;;9.45;;
48574;SDS011;34352;51.084;3.712;2023-09-07T06:05:12;15.63;;;9.55;;
48574;SDS011;34352;51.084;3.712;2023-09-07T06:07:38;15.20;;;8.50;;
48574;SDS011;34352;51.084;3.712;2023-09-07T06:10:04;37.53;;;10.13;;
48574;SDS011;34352;51.084;3.712;2023-09-07T06:12:31;13.77;;;7.88;;
48574;SDS011;34352;51.084;3.712;2023-09-07T06:14:59;13.90;;;8.85;;
48574;SDS011;34352;51.084;3.712;2023-09-07T06:17:27;16.00;;;9.13;;
48574;SDS011;34352;51.084;3.712;2023-09-07T06:19:54;15.63;;;9.13;;
48574;SDS011;34352;51.084;3.712;2023-09-07T06:22:22;12.55;;;8.50;;
48574;SDS011;34352;51.084;3.712;2023-09-07T06:24:48;13.98;;;8.27;;
48574;SDS011;34352;51.084;3.712;2023-09-07T06:27:14;14.32;;;8.23;;
48574;SDS011;34352;51.084;3.712;2023-09-07T06:29:41;14.52;;;8.55;;
48574;SDS011;34352;51.084;3.712;2023-09-07T06:32:07;16.67;;;8.18;;
48574;SDS011;34352;51.084;3.712;2023-09-07T06:34:34;15.50;;;8.55;;
48574;SDS011;34352;51.084;3.712;2023-09-07T06:37:01;14.60;;;8.68;;
48574;SDS011;34352;51.084;3.712;2023-09-07T06:39:28;13.18;;;8.40;;
48574;SDS011;34352;51.084;3.712;2023-09-07T06:41:54;15.57;;;8.77;;
48574;SDS011;34352;51.084;3.712;2023-09-07T06:44:20;11.32;;;7.07;;
48574;SDS011;34352;51.084;3.712;2023-09-07T06:46:47;19.55;;;8.38;;
48574;SDS011;34352;51.084;3.712;2023-09-07T06:49:14;14.45;;;8.65;;
48574;SDS011;34352;51.084;3.712;2023-09-07T06:51:42;16.70;;;8.65;;
48574;SDS011;34352;51.084;3.712;2023-09-07T06:54:09;17.17;;;8.00;;
48574;SDS011;34352;51.084;3.712;2023-09-07T06:56:36;17.10;;;8.73;;
48574;SDS011;34352;51.084;3.712;2023-09-07T06:59:04;13.50;;;8.60;;
48574;SDS011;34352;51.084;3.712;2023-09-07T07:01:29;14.80;;;6.95;;
48574;SDS011;34352;51.084;3.712;2023-09-07T07:03:56;16.70;;;7.95;;
48574;SDS011;34352;51.084;3.712;2023-09-07T07:06:22;13.80;;;8.07;;
48574;SDS011;34352;51.084;3.712;2023-09-07T07:08:49;11.10;;;7.07;;
48574;SDS011;34352;51.084;3.712;2023-09-07T07:11:17;12.10;;;6.90;;
48574;SDS011;34352;51.084;3.712;2023-09-07T07:13:43;11.35;;;7.45;;
48574;SDS011;34352;51.084;3.712;2023-09-07T07:16:08;11.27;;;7.50;;
48574;SDS011;34352;51.084;3.712;2023-09-07T07:18:34;15.38;;;7.30;;
48574;SDS011;34352;51.084;3.712;2023-09-07T07:21:00;12.00;;;7.07;;
48574;SDS011;34352;51.084;3.712;2023-09-07T07:23:25;13.13;;;6.70;;
48574;SDS011;34352;51.084;3.712;2023-09-07T07:25:51;10.57;;;7.10;;
48574;SDS011;34352;51.084;3.712;2023-09-07T07:28:18;11.18;;;5.95;;
48574;SDS011;34352;51.084;3.712;2023-09-07T07:30:43;11.25;;;5.72;;
48574;SDS011;34352;51.084;3.712;2023-09-07T07:33:10;9.80;;;6.25;;
48574;SDS011;34352;51.084;3.712;2023-09-07T07:35:37;9.55;;;6.10;;
48574;SDS011;34352;51.084;3.712;2023-09-07T07:38:03;8.88;;;6.10;;
48574;SDS011;34352;51.084;3.712;2023-09-07T07:40:30;8.73;;;5.28;;
48574;SDS011;34352;51.084;3.712;2023-09-07T07:42:56;8.73;;;5.75;;
48574;SDS011;34352;51.084;3.712;2023-09-07T07:45:21;10.68;;;6.03;;
48574;SDS011;34352;51.084;3.712;2023-09-07T07:47:50;7.47;;;5.10;;
48574;SDS011;34352;51.084;3.712;2023-09-07T07:50:19;8.57;;;5.65;;
48574;SDS011;34352;51.084;3.712;2023-09-07T07:52:45;11.15;;;6.13;;
48574;SDS011;34352;51.084;3.712;2023-09-07T07:55:11;10.32;;;5.53;;
48574;SDS011;34352;51.084;3.712;2023-09-07T07:57:37;9.60;;;5.82;;
48574;SDS011;34352;51.084;3.712;2023-09-07T08:00:06;7.15;;;5.10;;
48574;SDS011;34352;51.084;3.712;2023-09-07T08:02:32;8.40;;;5.15;;
48574;SDS011;34352;51.084;3.712;2023-09-07T08:04:58;9.10;;;5.53;;
48574;SDS011;34352;51.084;3.712;2023-09-07T08:07:24;10.50;;;5.25;;
48574;SDS011;34352;51.084;3.712;2023-09-07T08:09:50;7.35;;;5.20;;
48574;SDS011;34352;51.084;3.712;2023-09-07T08:12:16;11.10;;;6.15;;
48574;SDS011;34352;51.084;3.712;2023-09-07T08:14:42;10.10;;;5.88;;
48574;SDS011;34352;51.084;3.712;2023-09-07T08:17:08;10.75;;;5.45;;
48574;SDS011;34352;51.084;3.712;2023-09-07T08:19:34;7.30;;;5.35;;
48574;SDS011;34352;51.084;3.712;2023-09-07T08:22:00;8.30;;;5.32;;
48574;SDS011;34352;51.084;3.712;2023-09-07T08:24:28;6.50;;;4.82;;
48574;SDS011;34352;51.084;3.712;2023-09-07T08:26:54;11.50;;;5.40;;
48574;SDS011;34352;51.084;3.712;2023-09-07T08:29:24;10.15;;;5.05;;
48574;SDS011;34352;51.084;3.712;2023-09-07T08:31:52;8.00;;;5.57;;
48574;SDS011;34352;51.084;3.712;2023-09-07T08:34:20;10.43;;;5.45;;
48574;SDS011;34352;51.084;3.712;2023-09-07T08:36:48;9.77;;;5.10;;
48574;SDS011;34352;51.084;3.712;2023-09-07T08:39:15;9.52;;;5.22;;
48574;SDS011;34352;51.084;3.712;2023-09-07T08:41:43;7.82;;;4.82;;
48574;SDS011;34352;51.084;3.712;2023-09-07T08:44:10;7.35;;;5.05;;
48574;SDS011;34352;51.084;3.712;2023-09-07T08:46:39;6.38;;;4.53;;
48574;SDS011;34352;51.084;3.712;2023-09-07T08:49:07;8.10;;;4.82;;
48574;SDS011;34352;51.084;3.712;2023-09-07T08:51:34;6.05;;;4.45;;
48574;SDS011;34352;51.084;3.712;2023-09-07T08:54:02;6.28;;;4.38;;
48574;SDS011;34352;51.084;3.712;2023-09-07T08:56:33;6.47;;;4.97;;
48574;SDS011;34352;51.084;3.712;2023-09-07T08:58:59;5.82;;;4.22;;
48574;SDS011;34352;51.084;3.712;2023-09-07T09:01:25;5.70;;;4.00;;
48574;SDS011;34352;51.084;3.712;2023-09-07T09:03:51;6.50;;;4.03;;
48574;SDS011;34352;51.084;3.712;2023-09-07T09:06:18;6.85;;;4.20;;
48574;SDS011;34352;51.084;3.712;2023-09-07T09:08:50;6.70;;;4.22;;
48574;SDS011;34352;51.084;3.712;2023-09-07T09:11:21;5.13;;;4.13;;
48574;SDS011;34352;51.084;3.712;2023-09-07T09:13:48;4.45;;;3.88;;
48574;SDS011;34352;51.084;3.712;2023-09-07T09:16:14;6.18;;;3.90;;
48574;SDS011;34352;51.084;3.712;2023-09-07T09:18:53;7.28;;;3.47;;
48574;SDS011;34352;51.084;3.712;2023-09-07T09:21:24;5.97;;;4.32;;
48574;SDS011;34352;51.084;3.712;2023-09-07T09:23:55;4.63;;;3.50;;
48574;SDS011;34352;51.084;3.712;2023-09-07T09:26:22;4.88;;;3.90;;
48574;SDS011;34352;51.084;3.712;2023-09-07T09:28:48;6.78;;;4.03;;
48574;SDS011;34352;51.084;3.712;2023-09-07T09:31:17;5.18;;;4.25;;
48574;SDS011;34352;51.084;3.712;2023-09-07T09:33:47;7.70;;;3.95;;
48574;SDS011;34352;51.084;3.712;2023-09-07T09:36:14;5.60;;;4.22;;
48574;SDS011;34352;51.084;3.712;2023-09-07T09:38:46;4.65;;;3.58;;
48574;SDS011;34352;51.084;3.712;2023-09-07T09:41:14;6.70;;;3.97;;
48574;SDS011;34352;51.084;3.712;2023-09-07T09:43:47;5.40;;;3.58;;
48574;SDS011;34352;51.084;3.712;2023-09-07T09:46:19;5.20;;;3.50;;
48574;SDS011;34352;51.084;3.712;2023-09-07T09:48:45;4.63;;;3.80;;
48574;SDS011;34352;51.084;3.712;2023-09-07T09:51:10;5.25;;;3.80;;
48574;SDS011;34352;51.084;3.712;2023-09-07T09:53:38;4.93;;;3.83;;
48574;SDS011;34352;51.084;3.712;2023-09-07T09:56:04;4.68;;;3.78;;
48574;SDS011;34352;51.084;3.712;2023-09-07T09:58:30;5.88;;;3.38;;
48574;SDS011;34352;51.084;3.712;2023-09-07T10:00:58;4.43;;;3.20;;
48574;SDS011;34352;51.084;3.712;2023-09-07T10:03:29;5.47;;;3.78;;
48574;SDS011;34352;51.084;3.712;2023-09-07T10:08:59;4.20;;;3.65;;
48574;SDS011;34352;51.084;3.712;2023-09-07T10:11:36;3.83;;;3.42;;
48574;SDS011;34352;51.084;3.712;2023-09-07T10:14:03;5.07;;;3.50;;
48574;SDS011;34352;51.084;3.712;2023-09-07T10:19:29;5.20;;;3.45;;
48574;SDS011;34352;51.084;3.712;2023-09-07T10:21:56;3.45;;;3.15;;
48574;SDS011;34352;51.084;3.712;2023-09-07T10:24:25;4.35;;;3.70;;
48574;SDS011;34352;51.084;3.712;2023-09-07T10:26:57;6.75;;;3.10;;
48574;SDS011;34352;51.084;3.712;2023-09-07T10:29:26;4.70;;;3.50;;
48574;SDS011;34352;51.084;3.712;2023-09-07T10:31:54;4.22;;;3.80;;
48574;SDS011;34352;51.084;3.712;2023-09-07T10:34:20;4.40;;;3.63;;
48574;SDS011;34352;51.084;3.712;2023-09-07T10:36:47;4.82;;;3.60;;
48574;SDS011;34352;51.084;3.712;2023-09-07T10:39:16;4.03;;;3.38;;
48574;SDS011;34352;51.084;3.712;2023-09-07T10:41:43;4.55;;;3.53;;
48574;SDS011;34352;51.084;3.712;2023-09-07T10:44:10;5.82;;;3.20;;
48574;SDS011;34352;51.084;3.712;2023-09-07T10:46:36;4.53;;;3.22;;
48574;SDS011;34352;51.084;3.712;2023-09-07T10:49:03;3.88;;;3.20;;
48574;SDS011;34352;51.084;3.712;2023-09-07T10:51:39;4.03;;;3.13;;
48574;SDS011;34352;51.084;3.712;2023-09-07T10:54:13;4.32;;;3.00;;
48574;SDS011;34352;51.084;3.712;2023-09-07T10:56:40;3.42;;;3.08;;
48574;SDS011;34352;51.084;3.712;2023-09-07T10:59:08;4.07;;;3.10;;
48574;SDS011;34352;51.084;3.712;2023-09-07T11:01:33;3.17;;;2.88;;
48574;SDS011;34352;51.084;3.712;2023-09-07T11:03:59;3.53;;;3.03;;
48574;SDS011;34352;51.084;3.712;2023-09-07T11:06:25;4.70;;;3.65;;
48574;SDS011;34352;51.084;3.712;2023-09-07T11:08:51;4.68;;;3.50;;
48574;SDS011;34352;51.084;3.712;2023-09-07T11:11:17;4.13;;;3.38;;
48574;SDS011;34352;51.084;3.712;2023-09-07T11:13:43;8.30;;;3.60;;
48574;SDS011;34352;51.084;3.712;2023-09-07T11:16:09;7.28;;;3.65;;
48574;SDS011;34352;51.084;3.712;2023-09-07T11:18:35;6.13;;;3.63;;
48574;SDS011;34352;51.084;3.712;2023-09-07T11:21:01;4.28;;;3.60;;
48574;SDS011;34352;51.084;3.712;2023-09-07T11:23:32;5.63;;;4.03;;
48574;SDS011;34352;51.084;3.712;2023-09-07T11:26:06;5.40;;;3.63;;
48574;SDS011;34352;51.084;3.712;2023-09-07T11:28:34;4.05;;;3.20;;
48574;SDS011;34352;51.084;3.712;2023-09-07T11:31:01;5.50;;;3.72;;
48574;SDS011;34352;51.084;3.712;2023-09-07T11:33:30;5.80;;;4.22;;
48574;SDS011;34352;51.084;3.712;2023-09-07T11:35:58;5.22;;;3.97;;
48574;SDS011;34352;51.084;3.712;2023-09-07T11:38:29;5.60;;;4.35;;
48574;SDS011;34352;51.084;3.712;2023-09-07T11:40:59;5.43;;;3.70;;
48574;SDS011;34352;51.084;3.712;2023-09-07T11:43:25;4.40;;;3.47;;
48574;SDS011;34352;51.084;3.712;2023-09-07T11:45:51;5.60;;;3.83;;
48574;SDS011;34352;51.084;3.712;2023-09-07T11:48:17;4.88;;;3.30;;
48574;SDS011;34352;51.084;3.712;2023-09-07T11:50:43;5.40;;;4.13;;
48574;SDS011;34352;51.084;3.712;2023-09-07T11:53:09;4.05;;;3.45;;
48574;SDS011;34352;51.084;3.712;2023-09-07T11:55:35;4.75;;;3.50;;
48574;SDS011;34352;51.084;3.712;2023-09-07T11:58:01;4.30;;;3.63;;
48574;SDS011;34352;51.084;3.712;2023-09-07T12:00:27;3.85;;;3.45;;
48574;SDS011;34352;51.084;3.712;2023-09-07T12:02:54;3.80;;;3.05;;
48574;SDS011;34352;51.084;3.712;2023-09-07T12:05:20;4.88;;;3.72;;
48574;SDS011;34352;51.084;3.712;2023-09-07T12:07:46;3.90;;;3.38;;
48574;SDS011;34352;51.084;3.712;2023-09-07T12:10:12;4.78;;;3.55;;
48574;SDS011;34352;51.084;3.712;2023-09-07T12:12:42;5.03;;;3.75;;
48574;SDS011;34352;51.084;3.712;2023-09-07T12:15:09;5.63;;;4.23;;
48574;SDS011;34352;51.084;3.712;2023-09-07T12:17:38;4.38;;;3.97;;
48574;SDS011;34352;51.084;3.712;2023-09-07T12:20:04;6.15;;;4.07;;
48574;SDS011;34352;51.084;3.712;2023-09-07T12:22:34;4.90;;;3.38;;
48574;SDS011;34352;51.084;3.712;2023-09-07T12:25:02;6.43;;;3.58;;
48574;SDS011;34352;51.084;3.712;2023-09-07T12:27:28;4.28;;;3.50;;
48574;SDS011;34352;51.084;3.712;2023-09-07T12:29:54;4.57;;;3.33;;
48574;SDS011;34352;51.084;3.712;2023-09-07T12:32:20;3.83;;;3.35;;
48574;SDS011;34352;51.084;3.712;2023-09-07T12:34:46;4.78;;;3.80;;
48574;SDS011;34352;51.084;3.712;2023-09-07T12:37:11;4.47;;;3.40;;
48574;SDS011;34352;51.084;3.712;2023-09-07T12:39:37;4.10;;;3.50;;
48574;SDS011;34352;51.084;3.712;2023-09-07T12:42:03;4.30;;;3.65;;
48574;SDS011;34352;51.084;3.712;2023-09-07T12:44:29;4.60;;;3.38;;
48574;SDS011;34352;51.084;3.712;2023-09-07T12:46:54;4.97;;;3.45;;
48574;SDS011;34352;51.084;3.712;2023-09-07T12:49:21;3.63;;;3.20;;
48574;SDS011;34352;51.084;3.712;2023-09-07T12:51:46;4.70;;;3.15;;
48574;SDS011;34352;51.084;3.712;2023-09-07T12:54:12;3.55;;;3.13;;
48574;SDS011;34352;51.084;3.712;2023-09-07T12:56:38;3.40;;;3.10;;
48574;SDS011;34352;51.084;3.712;2023-09-07T12:59:03;4.18;;;3.03;;
48574;SDS011;34352;51.084;3.712;2023-09-07T13:01:29;4.00;;;3.40;;
48574;SDS011;34352;51.084;3.712;2023-09-07T13:03:56;5.55;;;3.90;;
48574;SDS011;34352;51.084;3.712;2023-09-07T13:06:22;9.88;;;3.90;;
48574;SDS011;34352;51.084;3.712;2023-09-07T13:08:47;3.65;;;3.25;;
48574;SDS011;34352;51.084;3.712;2023-09-07T13:11:13;7.85;;;3.63;;
48574;SDS011;34352;51.084;3.712;2023-09-07T13:13:40;3.78;;;3.15;;
48574;SDS011;34352;51.084;3.712;2023-09-07T13:16:05;4.00;;;3.25;;
48574;SDS011;34352;51.084;3.712;2023-09-07T13:18:31;4.47;;;3.00;;
48574;SDS011;34352;51.084;3.712;2023-09-07T13:20:57;4.30;;;3.35;;
48574;SDS011;34352;51.084;3.712;2023-09-07T13:23:27;4.07;;;3.42;;
48574;SDS011;34352;51.084;3.712;2023-09-07T13:25:54;3.78;;;3.10;;
48574;SDS011;34352;51.084;3.712;2023-09-07T13:28:22;5.10;;;3.15;;
48574;SDS011;34352;51.084;3.712;2023-09-07T13:30:50;6.93;;;3.10;;
48574;SDS011;34352;51.084;3.712;2023-09-07T13:33:16;5.95;;;3.53;;
48574;SDS011;34352;51.084;3.712;2023-09-07T13:35:42;3.80;;;3.38;;
48574;SDS011;34352;51.084;3.712;2023-09-07T13:38:08;4.20;;;3.05;;
48574;SDS011;34352;51.084;3.712;2023-09-07T13:40:34;6.60;;;3.20;;
48574;SDS011;34352;51.084;3.712;2023-09-07T13:43:00;3.17;;;2.85;;
48574;SDS011;34352;51.084;3.712;2023-09-07T13:45:25;4.05;;;3.20;;
48574;SDS011;34352;51.084;3.712;2023-09-07T13:47:53;3.53;;;3.22;;
48574;SDS011;34352;51.084;3.712;2023-09-07T13:50:19;3.78;;;3.25;;
48574;SDS011;34352;51.084;3.712;2023-09-07T13:52:44;4.13;;;3.30;;
48574;SDS011;34352;51.084;3.712;2023-09-07T13:55:10;3.38;;;2.85;;
48574;SDS011;34352;51.084;3.712;2023-09-07T13:57:41;3.92;;;3.20;;
48574;SDS011;34352;51.084;3.712;2023-09-07T14:02:51;3.40;;;2.97;;
48574;SDS011;34352;51.084;3.712;2023-09-07T14:08:02;3.90;;;3.33;;
48574;SDS011;34352;51.084;3.712;2023-09-07T14:13:06;3.92;;;3.40;;
48574;SDS011;34352;51.084;3.712;2023-09-07T14:15:31;4.75;;;3.50;;
48574;SDS011;34352;51.084;3.712;2023-09-07T14:17:58;4.35;;;3.40;;
48574;SDS011;34352;51.084;3.712;2023-09-07T14:20:26;4.53;;;3.67;;
48574;SDS011;34352;51.084;3.712;2023-09-07T14:22:51;5.85;;;3.03;;
48574;SDS011;34352;51.084;3.712;2023-09-07T14:25:18;3.88;;;3.40;;
48574;SDS011;34352;51.084;3.712;2023-09-07T14:27:44;3.40;;;3.10;;
48574;SDS011;34352;51.084;3.712;2023-09-07T14:30:10;3.53;;;3.20;;
48574;SDS011;34352;51.084;3.712;2023-09-07T14:32:35;4.07;;;3.40;;
48574;SDS011;34352;51.084;3.712;2023-09-07T14:35:02;3.92;;;3.30;;
48574;SDS011;34352;51.084;3.712;2023-09-07T14:37:29;5.05;;;3.30;;
48574;SDS011;34352;51.084;3.712;2023-09-07T14:39:56;4.28;;;3.13;;
48574;SDS011;34352;51.084;3.712;2023-09-07T14:42:24;5.15;;;3.38;;
48574;SDS011;34352;51.084;3.712;2023-09-07T14:44:50;3.75;;;3.15;;
48574;SDS011;34352;51.084;3.712;2023-09-07T14:47:16;3.97;;;3.03;;
48574;SDS011;34352;51.084;3.712;2023-09-07T14:49:41;4.22;;;3.10;;
48574;SDS011;34352;51.084;3.712;2023-09-07T14:52:12;4.75;;;3.55;;
48574;SDS011;34352;51.084;3.712;2023-09-07T14:54:37;3.70;;;3.00;;
48574;SDS011;34352;51.084;3.712;2023-09-07T14:57:05;5.80;;;3.60;;
48574;SDS011;34352;51.084;3.712;2023-09-07T14:59:31;5.40;;;3.30;;
48574;SDS011;34352;51.084;3.712;2023-09-07T15:01:57;4.18;;;3.20;;
48574;SDS011;34352;51.084;3.712;2023-09-07T15:04:23;3.63;;;3.20;;
48574;SDS011;34352;51.084;3.712;2023-09-07T15:06:50;3.42;;;3.05;;
48574;SDS011;34352;51.084;3.712;2023-09-07T15:09:16;3.40;;;3.10;;
48574;SDS011;34352;51.084;3.712;2023-09-07T15:11:42;3.28;;;2.90;;
48574;SDS011;34352;51.084;3.712;2023-09-07T15:14:07;3.30;;;3.00;;
48574;SDS011;34352;51.084;3.712;2023-09-07T15:16:33;3.78;;;2.97;;
48574;SDS011;34352;51.084;3.712;2023-09-07T15:18:59;3.47;;;3.17;;
48574;SDS011;34352;51.084;3.712;2023-09-07T15:21:26;3.28;;;2.97;;
48574;SDS011;34352;51.084;3.712;2023-09-07T15:23:52;4.88;;;3.00;;
48574;SDS011;34352;51.084;3.712;2023-09-07T15:26:18;4.05;;;3.13;;
48574;SDS011;34352;51.084;3.712;2023-09-07T15:28:44;4.47;;;3.38;;
48574;SDS011;34352;51.084;3.712;2023-09-07T15:31:09;4.32;;;3.10;;
48574;SDS011;34352;51.084;3.712;2023-09-07T15:33:35;3.80;;;3.28;;
48574;SDS011;34352;51.084;3.712;2023-09-07T15:36:01;5.40;;;3.50;;